createdAt,value
2018-12-12T00:00:16.981Z,15.30
2018-12-12T00:02:45.191Z,15.43
2018-12-12T00:05:13.342Z,15.00
2018-12-12T00:07:41.456Z,13.83
2018-12-12T00:10:11.638Z,15.10
2018-12-12T00:12:39.720Z,16.53
2018-12-12T00:15:07.966Z,14.40
2018-12-12T00:17:36.358Z,14.93
2018-12-12T00:20:06.034Z,15.60
2018-12-12T00:22:34.168Z,14.83
2018-12-12T00:25:02.360Z,15.60
2018-12-12T00:27:30.416Z,15.03
2018-12-12T00:29:58.470Z,15.00
2018-12-12T00:32:26.531Z,15.57
2018-12-12T00:34:54.633Z,16.53
2018-12-12T00:37:22.706Z,15.67
2018-12-12T00:39:50.759Z,15.50
2018-12-12T00:42:18.824Z,15.30
2018-12-12T00:44:46.957Z,15.30
2018-12-12T00:47:15.151Z,13.83
2018-12-12T00:49:43.208Z,15.50
2018-12-12T00:52:11.870Z,15.13
2018-12-12T00:54:40.258Z,14.80
2018-12-12T00:57:08.332Z,15.17
2018-12-12T00:59:36.472Z,15.37
2018-12-12T01:02:04.734Z,15.50
2018-12-12T01:04:32.800Z,15.77
2018-12-12T01:07:00.946Z,15.33
2018-12-12T01:09:29.002Z,15.43
2018-12-12T01:12:02.893Z,14.28
2018-12-12T01:14:31.048Z,15.00
2018-12-12T01:16:59.138Z,15.28
2018-12-12T01:19:27.558Z,15.03
2018-12-12T01:21:55.690Z,13.87
2018-12-12T01:24:23.813Z,15.30
2018-12-12T01:26:51.899Z,15.47
2018-12-12T01:29:19.977Z,14.97
2018-12-12T01:31:48.070Z,14.53
2018-12-12T01:34:16.233Z,15.27
2018-12-12T01:36:44.457Z,15.57
2018-12-12T01:39:12.546Z,15.17
2018-12-12T01:41:41.416Z,16.13
2018-12-12T01:44:09.472Z,14.63
2018-12-12T01:46:37.544Z,14.63
2018-12-12T01:49:05.653Z,15.30
2018-12-12T01:51:33.730Z,14.70
2018-12-12T01:54:01.788Z,14.93
2018-12-12T01:56:29.962Z,14.57
2018-12-12T01:58:58.031Z,15.13
2018-12-12T02:01:26.104Z,15.33
2018-12-12T02:03:54.217Z,16.63
2018-12-12T02:06:22.288Z,16.10
2018-12-12T02:08:50.461Z,15.87
2018-12-12T02:11:18.522Z,15.70
2018-12-12T02:13:46.582Z,16.40
2018-12-12T02:16:14.877Z,15.70
2018-12-12T02:18:43.572Z,16.00
2018-12-12T02:21:11.885Z,16.47
2018-12-12T02:23:39.971Z,16.30
2018-12-12T02:26:08.080Z,15.13
2018-12-12T02:28:36.191Z,15.17
2018-12-12T02:31:04.387Z,15.53
2018-12-12T02:33:32.599Z,15.60
2018-12-12T02:36:00.690Z,17.03
2018-12-12T02:38:28.787Z,15.68
2018-12-12T02:40:57.366Z,18.23
2018-12-12T02:43:25.511Z,15.70
2018-12-12T02:45:53.574Z,16.37
2018-12-12T02:48:21.666Z,15.27
2018-12-12T02:50:50.851Z,16.70
2018-12-12T02:53:18.911Z,16.33
2018-12-12T02:55:46.982Z,16.37
2018-12-12T02:58:15.052Z,16.70
2018-12-12T03:00:43.121Z,16.93
2018-12-12T03:03:11.410Z,16.80
2018-12-12T03:05:39.596Z,15.10
2018-12-12T03:08:07.740Z,17.47
2018-12-12T03:10:35.888Z,15.35
2018-12-12T03:13:04.015Z,16.67
2018-12-12T03:15:32.271Z,17.30
2018-12-12T03:18:00.338Z,16.10
2018-12-12T03:20:28.396Z,15.87
2018-12-12T03:22:56.539Z,16.93
2018-12-12T03:25:24.656Z,17.73
2018-12-12T03:27:52.716Z,17.33
2018-12-12T03:30:20.786Z,17.80
2018-12-12T03:32:48.931Z,18.03
2018-12-12T03:35:17.046Z,17.33
2018-12-12T03:37:45.120Z,17.17
2018-12-12T03:40:13.769Z,16.27
2018-12-12T03:42:42.187Z,17.97
2018-12-12T03:45:10.356Z,17.60
2018-12-12T03:47:38.508Z,19.47
2018-12-12T03:50:06.829Z,18.77
2018-12-12T03:52:35.048Z,18.53
2018-12-12T03:55:05.605Z,19.27
2018-12-12T03:57:33.818Z,19.67
2018-12-12T04:00:01.975Z,19.13
2018-12-12T04:02:30.117Z,18.83
2018-12-12T04:04:58.173Z,19.83
2018-12-12T04:07:26.266Z,19.90
2018-12-12T04:09:54.358Z,19.67
2018-12-12T04:12:22.512Z,18.93
2018-12-12T04:14:50.571Z,19.37
2018-12-12T04:17:18.622Z,19.37
2018-12-12T04:19:46.783Z,18.93
2018-12-12T04:22:16.659Z,19.82
2018-12-12T04:24:44.956Z,19.63
2018-12-12T04:27:13.016Z,20.30
2018-12-12T04:29:41.086Z,19.00
2018-12-12T04:32:09.251Z,19.15
2018-12-12T04:34:37.438Z,20.00
2018-12-12T04:37:05.606Z,19.73
2018-12-12T04:39:33.662Z,19.20
2018-12-12T04:42:01.723Z,19.70
2018-12-12T04:44:29.822Z,20.08
2018-12-12T04:46:57.908Z,20.30
2018-12-12T04:49:25.971Z,19.63
2018-12-12T04:51:54.025Z,19.97
2018-12-12T04:54:22.091Z,19.93
2018-12-12T04:56:50.170Z,20.40
2018-12-12T04:59:18.482Z,19.67
2018-12-12T05:01:46.538Z,20.00
2018-12-12T05:04:14.630Z,19.90
2018-12-12T05:06:42.728Z,18.40
2018-12-12T05:09:10.846Z,19.73
2018-12-12T05:11:38.914Z,19.37
2018-12-12T05:14:06.981Z,21.10
2018-12-12T05:16:35.945Z,20.68
2018-12-12T05:19:04.056Z,20.70
2018-12-12T05:21:32.191Z,23.30
2018-12-12T05:24:00.278Z,22.82
2018-12-12T05:26:28.395Z,23.27
2018-12-12T05:28:56.574Z,22.20
2018-12-12T05:31:24.724Z,21.30
2018-12-12T05:33:52.786Z,23.43
2018-12-12T05:36:20.851Z,23.00
2018-12-12T05:38:48.902Z,22.83
2018-12-12T05:41:16.999Z,23.17
2018-12-12T05:43:45.171Z,23.03
2018-12-12T05:46:13.234Z,23.03
2018-12-12T05:48:41.346Z,22.00
2018-12-12T05:51:09.447Z,22.37
2018-12-12T05:53:37.602Z,21.73
2018-12-12T05:56:05.726Z,21.50
2018-12-12T05:58:33.799Z,19.95
2018-12-12T06:01:01.878Z,23.40
2018-12-12T06:03:30.035Z,21.20
2018-12-12T06:05:58.136Z,22.77
2018-12-12T06:08:26.227Z,22.87
2018-12-12T06:10:54.294Z,22.80
2018-12-12T06:13:22.350Z,22.83
2018-12-12T06:15:50.410Z,21.53
2018-12-12T06:18:18.582Z,23.67
2018-12-12T06:20:46.654Z,21.27
2018-12-12T06:23:14.746Z,21.70
2018-12-12T06:25:42.951Z,21.90
2018-12-12T06:28:11.011Z,18.90
2018-12-12T06:30:39.079Z,20.60
2018-12-12T06:33:07.166Z,21.80
2018-12-12T06:35:35.276Z,20.70
2018-12-12T06:38:03.369Z,20.60
2018-12-12T06:40:31.509Z,20.90
2018-12-12T06:42:59.586Z,19.98
2018-12-12T06:45:27.642Z,18.97
2018-12-12T06:47:56.730Z,19.56
2018-12-12T06:50:24.818Z,19.47
2018-12-12T06:52:52.875Z,19.60
2018-12-12T06:55:20.969Z,21.43
2018-12-12T06:57:49.039Z,20.83
2018-12-12T07:00:17.209Z,21.63
2018-12-12T07:02:45.266Z,20.87
2018-12-12T07:05:13.334Z,21.23
2018-12-12T07:07:41.522Z,19.20
2018-12-12T07:10:09.658Z,21.80
2018-12-12T07:12:37.747Z,19.60
2018-12-12T07:15:05.863Z,20.15
2018-12-12T07:17:33.968Z,21.97
2018-12-12T07:20:02.062Z,20.93
2018-12-12T07:22:31.354Z,22.87
2018-12-12T07:24:59.452Z,22.07
2018-12-12T07:27:27.656Z,21.83
2018-12-12T07:29:55.722Z,23.40
2018-12-12T07:32:26.164Z,21.37
2018-12-12T07:34:53.902Z,23.70
2018-12-12T07:37:22.009Z,21.73
2018-12-12T07:39:50.106Z,21.60
2018-12-12T07:42:18.218Z,21.50
2018-12-12T07:44:46.319Z,23.23
2018-12-12T07:47:14.463Z,24.37
2018-12-12T07:49:42.654Z,22.43
2018-12-12T07:52:12.239Z,23.60
2018-12-12T07:54:40.590Z,21.03
2018-12-12T07:57:08.646Z,23.27
2018-12-12T07:59:36.710Z,21.07
2018-12-12T08:02:04.951Z,23.93
2018-12-12T08:04:33.058Z,24.13
2018-12-12T08:07:01.154Z,22.93
2018-12-12T08:09:29.256Z,23.18
2018-12-12T08:11:57.418Z,22.37
2018-12-12T08:14:25.487Z,22.90
2018-12-12T08:16:53.551Z,26.57
2018-12-12T08:19:21.610Z,25.57
2018-12-12T08:21:49.706Z,25.93
2018-12-12T08:24:17.779Z,21.83
2018-12-12T08:26:45.891Z,23.77
2018-12-12T08:29:13.963Z,21.23
2018-12-12T08:31:42.024Z,24.00
2018-12-12T08:34:10.133Z,25.40
2018-12-12T08:36:38.203Z,26.57
2018-12-12T08:39:07.211Z,27.70
2018-12-12T08:41:35.315Z,27.27
2018-12-12T08:44:03.508Z,25.27
2018-12-12T08:46:31.620Z,26.57
2018-12-12T08:48:59.755Z,25.27
2018-12-12T08:51:27.832Z,24.50
2018-12-12T08:53:55.907Z,25.07
2018-12-12T08:56:23.984Z,24.87
2018-12-12T08:58:52.037Z,24.80
2018-12-12T09:01:20.112Z,25.77
2018-12-12T09:03:48.296Z,24.20
2018-12-12T09:06:16.369Z,25.33
2018-12-12T09:08:44.418Z,27.03
2018-12-12T09:11:12.522Z,25.73
2018-12-12T09:13:40.575Z,28.03
2018-12-12T09:16:08.663Z,27.42
2018-12-12T09:18:36.704Z,29.42
2018-12-12T09:21:04.766Z,27.80
2018-12-12T09:23:33.999Z,28.47
2018-12-12T09:26:02.074Z,29.77
2018-12-12T09:28:30.138Z,28.83
2018-12-12T09:30:58.204Z,28.97
2018-12-12T09:33:26.364Z,28.67
2018-12-12T09:35:54.508Z,27.43
2018-12-12T09:38:22.573Z,30.77
2018-12-12T09:40:50.914Z,30.63
2018-12-12T09:43:18.984Z,30.73
2018-12-12T09:45:47.047Z,32.42
2018-12-12T09:48:19.285Z,32.40
2018-12-12T09:50:45.232Z,29.97
2018-12-12T09:53:13.299Z,31.87
2018-12-12T09:55:41.389Z,32.33
2018-12-12T09:58:10.993Z,31.20
2018-12-12T10:00:39.071Z,31.00
2018-12-12T10:03:07.132Z,32.93
2018-12-12T10:05:35.196Z,35.17
2018-12-12T10:08:03.383Z,35.10
2018-12-12T10:10:31.465Z,33.17
2018-12-12T10:12:59.514Z,33.70
2018-12-12T10:15:27.618Z,36.10
2018-12-12T10:17:55.674Z,29.85
2018-12-12T10:20:23.763Z,34.63
2018-12-12T10:22:52.971Z,32.65
2018-12-12T10:25:21.035Z,32.40
2018-12-12T10:27:49.211Z,34.67
2018-12-12T10:30:17.301Z,34.27
2018-12-12T10:32:45.406Z,36.37
2018-12-12T10:35:14.568Z,35.37
2018-12-12T10:37:42.911Z,37.95
2018-12-12T10:40:10.986Z,35.77
2018-12-12T10:42:39.134Z,38.93
2018-12-12T10:45:07.295Z,34.45
2018-12-12T10:47:35.361Z,36.10
2018-12-12T10:50:05.422Z,37.30
2018-12-12T10:52:33.480Z,37.50
2018-12-12T10:55:01.770Z,37.97
2018-12-12T10:57:29.868Z,37.60
2018-12-12T10:59:57.935Z,35.23
2018-12-12T11:02:30.285Z,36.10
2018-12-12T11:04:58.638Z,38.13
2018-12-12T11:07:26.826Z,37.00
2018-12-12T11:09:54.884Z,37.65
2018-12-12T11:12:23.001Z,38.00
2018-12-12T11:14:52.028Z,37.53
2018-12-12T11:17:20.246Z,38.00
2018-12-12T11:19:48.334Z,39.97
2018-12-12T11:22:16.415Z,39.73
2018-12-12T11:24:45.180Z,36.77
2018-12-12T11:27:13.461Z,35.60
2018-12-12T11:29:41.550Z,38.20
2018-12-12T11:32:09.647Z,37.13
2018-12-12T11:34:37.845Z,38.20
2018-12-12T11:37:05.939Z,37.40
2018-12-12T11:39:34.095Z,36.85
2018-12-12T11:42:02.178Z,37.30
2018-12-12T11:44:30.225Z,37.70
2018-12-12T11:46:58.311Z,36.43
2018-12-12T11:49:26.435Z,37.90
2018-12-12T11:51:54.517Z,34.30
2018-12-12T11:54:22.706Z,37.03
2018-12-12T11:56:50.764Z,34.93
2018-12-12T11:59:18.847Z,35.27
2018-12-12T12:01:46.964Z,37.53
2018-12-12T12:04:15.038Z,38.87
2018-12-12T12:06:43.103Z,36.57
2018-12-12T12:09:11.162Z,36.13
2018-12-12T12:11:39.373Z,35.54
2018-12-12T12:14:07.462Z,32.50
2018-12-12T12:16:35.600Z,31.05
2018-12-12T12:19:03.735Z,31.13
2018-12-12T12:21:31.846Z,30.93
2018-12-12T12:23:59.951Z,32.33
2018-12-12T12:26:28.139Z,35.88
2018-12-12T12:28:56.541Z,35.90
2018-12-12T12:31:24.967Z,31.40
2018-12-12T12:33:53.297Z,30.40
2018-12-12T12:36:21.440Z,28.12
2018-12-12T12:38:49.511Z,22.62
2018-12-12T12:41:17.566Z,24.43
2018-12-12T12:43:45.976Z,20.43
2018-12-12T12:46:14.054Z,20.53
2018-12-12T12:48:42.124Z,16.73
2018-12-12T12:51:10.187Z,16.20
2018-12-12T12:53:38.306Z,16.07
2018-12-12T12:56:06.458Z,15.07
2018-12-12T12:58:34.530Z,16.90
2018-12-12T13:01:02.602Z,16.70
2018-12-12T13:03:30.683Z,16.47
2018-12-12T13:05:58.742Z,15.85
2018-12-12T13:08:26.811Z,14.80
2018-12-12T13:10:56.003Z,13.36
2018-12-12T13:13:24.316Z,14.60
2018-12-12T13:15:52.516Z,14.40
2018-12-12T13:18:20.604Z,12.17
2018-12-12T13:20:48.766Z,13.20
2018-12-12T13:23:16.840Z,14.07
2018-12-12T13:25:44.951Z,13.53
2018-12-12T13:30:51.767Z,13.40
2018-12-12T13:33:19.836Z,13.77
2018-12-12T13:35:47.931Z,11.68
2018-12-12T13:38:16.018Z,12.50
2018-12-12T13:40:44.163Z,12.67
2018-12-12T13:43:12.226Z,14.07
2018-12-12T13:45:40.295Z,11.03
2018-12-12T13:48:08.422Z,13.40
2018-12-12T13:50:36.507Z,12.67
2018-12-12T13:53:04.626Z,13.63
2018-12-12T13:55:32.702Z,13.63
2018-12-12T13:58:00.786Z,12.43
2018-12-12T14:00:28.948Z,12.47
2018-12-12T14:02:57.031Z,13.17
2018-12-12T14:05:25.183Z,11.53
2018-12-12T14:07:53.278Z,11.57
2018-12-12T14:10:21.330Z,13.03
2018-12-12T14:12:49.398Z,10.70
2018-12-12T14:15:17.482Z,10.60
2018-12-12T14:17:45.786Z,10.78
2018-12-12T14:20:14.506Z,8.80
2018-12-12T14:22:42.573Z,10.83
2018-12-12T14:25:10.626Z,8.60
2018-12-12T14:27:55.191Z,7.87
2018-12-12T14:30:23.272Z,7.78
2018-12-12T14:32:51.370Z,9.43
2018-12-12T14:35:19.448Z,8.90
2018-12-12T14:37:48.354Z,7.93
2018-12-12T14:40:16.430Z,8.50
2018-12-12T14:42:45.628Z,8.00
2018-12-12T14:45:13.789Z,7.60
2018-12-12T14:47:41.895Z,7.87
2018-12-12T14:50:09.998Z,8.50
2018-12-12T14:52:39.289Z,8.07
2018-12-12T14:55:07.485Z,7.27
2018-12-12T14:57:35.648Z,6.53
2018-12-12T15:00:05.648Z,6.60
2018-12-12T15:02:33.768Z,7.50
2018-12-12T15:05:02.030Z,7.00
2018-12-12T15:07:30.089Z,8.23
2018-12-12T15:09:58.218Z,6.53
2018-12-12T15:12:26.301Z,7.45
2018-12-12T15:14:54.394Z,6.30
2018-12-12T15:17:22.467Z,7.13
2018-12-12T15:19:50.576Z,6.50
2018-12-12T15:22:18.853Z,6.83
2018-12-12T15:24:48.099Z,5.62
2018-12-12T15:27:17.357Z,4.87
2018-12-12T15:29:45.460Z,5.08
2018-12-12T15:32:13.525Z,5.95
2018-12-12T15:34:42.402Z,6.10
2018-12-12T15:37:10.748Z,5.77
2018-12-12T15:39:38.824Z,6.62
2018-12-12T15:42:07.954Z,6.47
2018-12-12T15:44:36.043Z,6.60
2018-12-12T15:47:04.141Z,7.17
2018-12-12T15:49:32.221Z,8.67
2018-12-12T15:52:01.595Z,9.13
2018-12-12T15:54:29.692Z,9.60
2018-12-12T15:56:59.816Z,10.20
2018-12-12T15:59:28.058Z,8.80
2018-12-12T16:01:56.153Z,7.37
2018-12-12T16:04:27.112Z,7.13
2018-12-12T16:06:55.214Z,6.30
2018-12-12T16:09:23.786Z,6.67
2018-12-12T16:11:52.016Z,6.37
2018-12-12T16:14:21.000Z,6.62
2018-12-12T16:16:49.925Z,7.80
2018-12-12T16:19:19.002Z,6.77
2018-12-12T16:21:47.084Z,6.95
2018-12-12T16:24:15.977Z,6.93
2018-12-12T16:26:44.056Z,6.87
2018-12-12T16:29:12.221Z,7.83
2018-12-12T16:31:40.310Z,7.93
2018-12-12T16:34:09.388Z,7.20
2018-12-12T16:36:37.504Z,9.20
2018-12-12T16:39:07.826Z,7.83
2018-12-12T16:41:36.015Z,7.83
2018-12-12T16:44:04.953Z,8.20
2018-12-12T16:46:33.034Z,9.40
2018-12-12T16:49:01.103Z,9.30
2018-12-12T16:51:29.191Z,8.23
2018-12-12T16:53:58.489Z,8.70
2018-12-12T16:56:26.758Z,7.83
2018-12-12T16:58:54.852Z,9.05
2018-12-12T17:01:23.003Z,8.67
2018-12-12T17:03:51.082Z,9.17
2018-12-12T17:06:19.232Z,12.07
2018-12-12T17:08:47.900Z,9.97
2018-12-12T17:11:16.113Z,12.93
2018-12-12T17:13:44.168Z,12.57
2018-12-12T17:16:12.554Z,10.82
2018-12-12T17:18:40.697Z,10.47
2018-12-12T17:21:10.472Z,11.37
2018-12-12T17:23:38.549Z,9.37
2018-12-12T17:29:30.496Z,27.23
2018-12-12T17:31:58.563Z,13.90
2018-12-12T17:34:26.830Z,12.40
2018-12-12T17:36:54.899Z,10.80
2018-12-12T17:39:22.978Z,11.20
2018-12-12T17:41:52.182Z,10.73
2018-12-12T17:44:20.290Z,11.68
2018-12-12T17:46:48.355Z,10.48
2018-12-12T17:49:16.418Z,11.07
2018-12-12T17:54:21.811Z,11.07
2018-12-12T17:56:49.866Z,10.60
2018-12-12T17:59:17.972Z,9.53
2018-12-12T18:01:46.176Z,10.10
2018-12-12T18:04:14.217Z,9.90
2018-12-12T18:06:42.283Z,8.90
2018-12-12T18:09:10.466Z,8.33
2018-12-12T18:11:38.562Z,8.40
2018-12-12T18:14:06.647Z,8.63
2018-12-12T18:16:34.715Z,8.40
2018-12-12T18:19:02.780Z,8.77
2018-12-12T18:21:32.437Z,8.68
2018-12-12T18:24:00.531Z,8.87
2018-12-12T18:26:28.629Z,9.77
2018-12-12T18:28:56.705Z,9.73
2018-12-12T18:31:24.766Z,9.85
2018-12-12T18:33:52.951Z,9.70
2018-12-12T18:36:21.085Z,9.67
2018-12-12T18:38:49.139Z,9.87
2018-12-12T18:41:17.214Z,8.63
2018-12-12T18:43:45.294Z,9.33
2018-12-12T18:46:13.435Z,10.00
2018-12-12T18:48:41.525Z,9.47
2018-12-12T18:51:10.722Z,8.70
2018-12-12T18:53:38.838Z,10.23
2018-12-12T18:56:07.046Z,8.87
2018-12-12T18:58:35.194Z,9.40
2018-12-12T19:01:03.230Z,8.80
2018-12-12T19:03:31.301Z,9.53
2018-12-12T19:05:59.452Z,9.17
2018-12-12T19:08:27.577Z,8.47
2018-12-12T19:10:55.614Z,9.53
2018-12-12T19:13:23.686Z,8.83
2018-12-12T19:15:51.784Z,9.40
2018-12-12T19:18:19.852Z,8.40
2018-12-12T19:20:47.922Z,8.73
2018-12-12T19:23:16.026Z,9.45
2018-12-12T19:25:44.138Z,9.57
2018-12-12T19:28:12.425Z,9.63
2018-12-12T19:30:41.465Z,9.58
2018-12-12T19:33:09.653Z,9.30
2018-12-12T19:35:37.816Z,9.33
2018-12-12T19:38:05.967Z,9.53
2018-12-12T19:40:34.122Z,9.37
2018-12-12T19:43:02.225Z,9.37
2018-12-12T19:45:30.489Z,8.78
2018-12-12T19:47:58.547Z,8.03
2018-12-12T19:50:26.643Z,8.30
2018-12-12T19:52:54.707Z,8.37
2018-12-12T19:55:22.799Z,8.50
2018-12-12T19:57:50.972Z,8.87
2018-12-12T20:00:19.056Z,8.27
2018-12-12T20:02:47.199Z,9.10
2018-12-12T20:05:15.331Z,8.97
2018-12-12T20:07:43.427Z,8.00
2018-12-12T20:10:11.516Z,8.77
2018-12-12T20:12:39.648Z,8.97
2018-12-12T20:15:09.801Z,8.87
2018-12-12T20:17:37.903Z,9.03
2018-12-12T20:20:06.052Z,9.00
2018-12-12T20:22:34.114Z,8.77
2018-12-12T20:25:02.178Z,8.73
2018-12-12T20:27:30.316Z,8.50
2018-12-12T20:29:58.367Z,8.80
2018-12-12T20:32:26.455Z,9.43
2018-12-12T20:34:54.590Z,10.93
2018-12-12T20:37:22.666Z,12.05
2018-12-12T20:39:50.819Z,13.27
2018-12-12T20:42:18.957Z,13.17
2018-12-12T20:44:47.454Z,13.05
2018-12-12T20:47:15.554Z,13.17
2018-12-12T20:49:43.611Z,13.40
2018-12-12T20:52:11.692Z,13.03
2018-12-12T20:54:39.862Z,12.60
2018-12-12T20:57:07.984Z,13.60
2018-12-12T20:59:36.178Z,13.80
2018-12-12T21:02:05.569Z,12.90
2018-12-12T21:04:33.773Z,13.38
2018-12-12T21:07:01.860Z,12.80
2018-12-12T21:09:30.007Z,11.33
2018-12-12T21:11:58.156Z,10.85
2018-12-12T21:14:26.218Z,11.27
2018-12-12T21:16:54.290Z,10.10
2018-12-12T21:19:22.345Z,10.77
2018-12-12T21:21:50.961Z,10.78
2018-12-12T21:24:19.020Z,11.83
2018-12-12T21:26:47.111Z,11.33
2018-12-12T21:29:15.200Z,12.30
2018-12-12T21:31:43.418Z,10.97
2018-12-12T21:34:11.555Z,11.12
2018-12-12T21:36:39.683Z,10.33
2018-12-12T21:39:07.798Z,9.57
2018-12-12T21:41:36.005Z,9.88
2018-12-12T21:44:04.121Z,10.50
2018-12-12T21:46:33.122Z,9.98
2018-12-12T21:49:01.183Z,10.40
2018-12-12T21:51:29.290Z,9.78
2018-12-12T21:53:57.422Z,9.60
2018-12-12T21:56:25.503Z,9.40
2018-12-12T21:58:53.603Z,10.10
2018-12-12T22:01:21.775Z,11.33
2018-12-12T22:03:50.981Z,9.13
2018-12-12T22:06:19.035Z,9.60
2018-12-12T22:08:47.094Z,9.77
2018-12-12T22:11:15.182Z,9.33
2018-12-12T22:13:43.336Z,9.73
2018-12-12T22:16:11.494Z,9.80
2018-12-12T22:18:39.550Z,9.63
2018-12-12T22:21:07.616Z,9.87
2018-12-12T22:23:35.678Z,9.87
2018-12-12T22:26:03.910Z,9.87
2018-12-12T22:28:31.987Z,11.33
2018-12-12T22:31:00.035Z,9.70
2018-12-12T22:33:28.268Z,9.17
2018-12-12T22:35:56.318Z,8.80
2018-12-12T22:38:24.406Z,10.13
2018-12-12T22:40:52.484Z,9.23
2018-12-12T22:43:20.591Z,8.83
2018-12-12T22:45:48.691Z,9.37
2018-12-12T22:48:20.530Z,8.63
2018-12-12T22:50:46.807Z,8.47
2018-12-12T22:53:14.903Z,8.70
2018-12-12T22:55:43.083Z,8.50
2018-12-12T22:58:11.136Z,8.20
2018-12-12T23:00:42.718Z,7.97
2018-12-12T23:03:10.787Z,7.73
2018-12-12T23:05:39.052Z,7.93
2018-12-12T23:08:07.091Z,8.43
2018-12-12T23:10:35.142Z,7.97
2018-12-12T23:13:03.250Z,8.67
2018-12-12T23:15:31.304Z,8.73
2018-12-12T23:17:59.368Z,7.87
2018-12-12T23:20:27.517Z,7.57
2018-12-12T23:22:56.035Z,7.20
2018-12-12T23:25:24.091Z,7.55
2018-12-12T23:27:52.261Z,7.47
2018-12-12T23:30:20.339Z,8.00
2018-12-12T23:32:48.428Z,8.50
2018-12-12T23:35:16.543Z,7.30
2018-12-12T23:37:44.615Z,7.20
2018-12-12T23:40:12.682Z,7.83
2018-12-12T23:42:40.816Z,8.90
2018-12-12T23:45:08.922Z,7.75
2018-12-12T23:47:36.992Z,7.35
2018-12-12T23:50:05.806Z,8.10
2018-12-12T23:52:34.075Z,7.15
2018-12-12T23:55:02.167Z,8.23
2018-12-12T23:57:30.231Z,7.95
2018-12-12T23:59:58.296Z,7.03
